createdAt,value
2019-02-04T00:00:44.604Z,1.00
2019-02-04T00:03:17.102Z,0.90
2019-02-04T00:05:43.376Z,1.00
2019-02-04T00:08:09.514Z,1.00
2019-02-04T00:10:35.666Z,1.00
2019-02-04T00:13:03.939Z,0.90
2019-02-04T00:15:30.320Z,1.00
2019-02-04T00:17:56.557Z,0.90
2019-02-04T00:20:22.715Z,0.90
2019-02-04T00:22:48.859Z,0.90
2019-02-04T00:25:15.003Z,0.90
2019-02-04T00:27:41.164Z,0.90
2019-02-04T00:30:11.411Z,0.90
2019-02-04T00:32:37.600Z,0.90
2019-02-04T00:35:04.255Z,0.90
2019-02-04T00:37:30.417Z,0.90
2019-02-04T00:39:56.784Z,0.90
2019-02-04T00:42:23.183Z,0.90
2019-02-04T00:44:49.610Z,0.90
2019-02-04T00:47:16.040Z,0.90
2019-02-04T00:49:42.306Z,0.90
2019-02-04T00:52:08.557Z,0.90
2019-02-04T00:54:34.943Z,0.90
2019-02-04T00:57:01.335Z,0.90
2019-02-04T00:59:27.509Z,0.90
2019-02-04T01:01:53.672Z,0.80
2019-02-04T01:04:20.872Z,0.90
2019-02-04T01:06:47.016Z,0.80
2019-02-04T01:09:14.955Z,0.90
2019-02-04T01:11:41.479Z,0.90
2019-02-04T01:14:07.619Z,0.90
2019-02-04T01:16:34.003Z,0.90
2019-02-04T01:19:00.191Z,0.90
2019-02-04T01:21:26.335Z,0.80
2019-02-04T01:23:52.482Z,0.90
2019-02-04T01:26:19.065Z,0.90
2019-02-04T01:28:45.220Z,0.90
2019-02-04T01:31:11.360Z,0.90
2019-02-04T01:33:37.547Z,0.90
2019-02-04T01:36:03.793Z,0.90
2019-02-04T01:38:29.984Z,0.90
2019-02-04T01:40:56.137Z,0.90
2019-02-04T01:43:22.519Z,0.90
2019-02-04T01:45:48.834Z,0.80
2019-02-04T01:48:15.028Z,0.80
2019-02-04T01:50:41.189Z,0.80
2019-02-04T01:53:07.367Z,0.80
2019-02-04T01:55:33.516Z,0.80
2019-02-04T01:57:59.671Z,0.80
2019-02-04T02:00:28.823Z,0.80
2019-02-04T02:02:55.375Z,0.80
2019-02-04T02:05:21.728Z,0.80
2019-02-04T02:07:48.195Z,0.80
2019-02-04T02:10:17.155Z,0.80
2019-02-04T02:12:43.440Z,0.80
2019-02-04T02:15:09.787Z,0.80
2019-02-04T02:17:35.944Z,0.80
2019-02-04T02:20:05.971Z,0.80
2019-02-04T02:22:32.247Z,0.80
2019-02-04T02:24:58.635Z,0.80
2019-02-04T02:27:24.833Z,0.80
2019-02-04T02:29:51.901Z,0.80
2019-02-04T02:32:18.280Z,0.90
2019-02-04T02:34:44.467Z,0.90
2019-02-04T02:37:11.299Z,0.80
2019-02-04T02:39:37.478Z,0.90
2019-02-04T02:42:03.611Z,0.80
2019-02-04T02:44:29.761Z,0.90
2019-02-04T02:46:55.995Z,0.90
2019-02-04T02:49:22.158Z,0.90
2019-02-04T02:51:48.315Z,0.90
2019-02-04T02:54:14.688Z,0.90
2019-02-04T02:56:40.864Z,0.90
2019-02-04T02:59:07.118Z,0.90
2019-02-04T03:01:33.263Z,0.90
2019-02-04T03:03:59.407Z,0.90
2019-02-04T03:06:25.890Z,0.90
2019-02-04T03:08:52.229Z,0.90
2019-02-04T03:11:18.375Z,0.90
2019-02-04T03:13:44.540Z,0.90
2019-02-04T03:16:11.096Z,0.90
2019-02-04T03:18:37.242Z,0.90
2019-02-04T03:21:03.531Z,0.90
2019-02-04T03:23:29.667Z,0.90
2019-02-04T03:25:55.813Z,0.90
2019-02-04T03:28:21.965Z,0.90
2019-02-04T03:30:48.133Z,0.90
2019-02-04T03:33:14.283Z,0.90
2019-02-04T03:35:40.741Z,0.90
2019-02-04T03:38:06.924Z,1.00
2019-02-04T03:40:33.088Z,0.90
2019-02-04T03:42:59.322Z,0.90
2019-02-04T03:45:25.734Z,1.00
2019-02-04T03:48:04.139Z,1.00
2019-02-04T03:50:21.288Z,0.90
2019-02-04T03:52:47.726Z,0.90
2019-02-04T03:55:16.892Z,0.90
2019-02-04T03:57:43.169Z,1.00
2019-02-04T04:00:15.320Z,1.00
2019-02-04T04:02:41.902Z,1.00
2019-02-04T04:05:08.639Z,0.90
2019-02-04T04:07:34.814Z,1.00
2019-02-04T04:10:01.254Z,1.00
2019-02-04T04:12:27.491Z,1.00
2019-02-04T04:14:53.940Z,1.00
2019-02-04T04:17:20.155Z,1.00
2019-02-04T04:19:46.338Z,0.90
2019-02-04T04:22:12.482Z,0.90
2019-02-04T04:24:38.652Z,0.80
2019-02-04T04:27:04.823Z,0.80
2019-02-04T04:29:31.237Z,0.70
2019-02-04T04:31:57.509Z,0.70
2019-02-04T04:34:23.638Z,0.70
2019-02-04T04:36:49.806Z,0.70
2019-02-04T04:39:16.031Z,0.70
2019-02-04T04:41:42.198Z,0.60
2019-02-04T04:44:08.398Z,0.60
2019-02-04T04:46:34.544Z,0.60
2019-02-04T04:49:00.704Z,0.60
2019-02-04T04:51:26.857Z,0.60
2019-02-04T04:53:53.010Z,0.60
2019-02-04T04:56:19.154Z,0.70
2019-02-04T04:58:45.387Z,0.70
2019-02-04T05:01:11.547Z,0.70
2019-02-04T05:03:38.022Z,0.70
2019-02-04T05:06:04.179Z,0.80
2019-02-04T05:08:30.335Z,0.80
2019-02-04T05:10:56.485Z,0.70
2019-02-04T05:13:22.885Z,0.80
2019-02-04T05:15:49.036Z,0.70
2019-02-04T05:18:15.208Z,0.70
2019-02-04T05:20:41.366Z,0.80
2019-02-04T05:23:07.549Z,0.80
2019-02-04T05:25:34.079Z,0.80
2019-02-04T05:28:00.236Z,0.80
2019-02-04T05:30:26.421Z,0.80
2019-02-04T05:32:52.896Z,0.80
2019-02-04T05:35:19.043Z,0.70
2019-02-04T05:37:45.220Z,0.80
2019-02-04T05:40:13.287Z,0.80
2019-02-04T05:42:39.656Z,0.80
2019-02-04T05:45:08.710Z,0.70
2019-02-04T05:47:34.966Z,0.70
2019-02-04T05:50:01.118Z,0.70
2019-02-04T05:52:27.273Z,0.70
2019-02-04T05:54:53.402Z,0.70
2019-02-04T05:57:19.564Z,0.70
2019-02-04T05:59:45.702Z,0.70
2019-02-04T06:02:12.280Z,0.70
2019-02-04T06:04:38.452Z,0.70
2019-02-04T06:07:04.665Z,0.70
2019-02-04T06:09:30.845Z,0.70
2019-02-04T06:11:56.984Z,0.60
2019-02-04T06:14:23.160Z,0.70
2019-02-04T06:16:49.302Z,0.70
2019-02-04T06:19:15.482Z,0.70
2019-02-04T06:21:42.016Z,0.60
2019-02-04T06:24:08.175Z,0.60
2019-02-04T06:26:34.330Z,0.60
2019-02-04T06:29:00.496Z,0.60
2019-02-04T06:31:26.635Z,0.60
2019-02-04T06:33:52.795Z,0.60
2019-02-04T06:36:18.945Z,0.60
2019-02-04T06:38:45.182Z,0.60
2019-02-04T06:41:11.983Z,0.60
2019-02-04T06:43:38.139Z,0.60
2019-02-04T06:46:04.308Z,0.60
2019-02-04T06:48:30.718Z,0.60
2019-02-04T06:50:56.855Z,0.60
2019-02-04T06:53:23.021Z,0.60
2019-02-04T06:55:49.157Z,0.70
2019-02-04T06:58:15.334Z,0.70
2019-02-04T07:00:42.408Z,0.70
2019-02-04T07:03:09.488Z,0.80
2019-02-04T07:05:43.543Z,0.80
2019-02-04T07:08:03.787Z,0.80
2019-02-04T07:10:30.135Z,0.80
2019-02-04T07:12:56.281Z,0.80
2019-02-04T07:15:22.431Z,0.80
2019-02-04T07:17:48.636Z,0.80
2019-02-04T07:20:20.427Z,0.80
2019-02-04T07:22:46.559Z,0.80
2019-02-04T07:25:15.527Z,0.90
2019-02-04T07:27:41.768Z,0.90
2019-02-04T07:30:16.914Z,0.90
2019-02-04T07:32:43.071Z,0.90
2019-02-04T07:35:12.023Z,0.90
2019-02-04T07:37:38.166Z,1.00
2019-02-04T07:40:10.764Z,1.00
2019-02-04T07:42:37.140Z,1.00
2019-02-04T07:45:05.590Z,1.10
2019-02-04T07:47:32.031Z,1.10
2019-02-04T07:49:58.488Z,1.10
2019-02-04T07:52:24.959Z,1.20
2019-02-04T07:54:51.224Z,1.20
2019-02-04T07:57:17.409Z,1.20
2019-02-04T07:59:43.787Z,1.20
2019-02-04T08:02:09.979Z,1.30
2019-02-04T08:04:36.112Z,1.30
2019-02-04T08:07:02.267Z,1.30
2019-02-04T08:12:03.679Z,1.50
2019-02-04T08:14:29.839Z,1.50
2019-02-04T08:16:55.991Z,1.50
2019-02-04T08:19:22.358Z,1.60
2019-02-04T08:21:48.511Z,1.70
2019-02-04T08:24:15.047Z,1.70
2019-02-04T08:26:41.371Z,1.70
2019-02-04T08:29:07.816Z,1.80
2019-02-04T08:31:34.069Z,2.00
2019-02-04T08:34:00.503Z,2.00
2019-02-04T08:36:27.087Z,2.10
2019-02-04T08:38:53.335Z,2.10
2019-02-04T08:41:19.715Z,2.10
2019-02-04T08:43:46.150Z,2.20
2019-02-04T08:46:12.579Z,2.20
2019-02-04T08:48:39.299Z,2.20
2019-02-04T08:51:05.562Z,2.30
2019-02-04T08:53:31.732Z,2.40
2019-02-04T08:55:58.107Z,2.30
2019-02-04T08:58:24.256Z,2.20
2019-02-04T09:00:50.540Z,2.40
2019-02-04T09:03:17.039Z,2.40
2019-02-04T09:05:43.179Z,2.40
2019-02-04T09:08:09.379Z,2.30
2019-02-04T09:10:35.638Z,2.40
2019-02-04T09:13:02.004Z,2.40
2019-02-04T09:15:28.450Z,2.40
2019-02-04T09:17:55.296Z,2.30
2019-02-04T09:20:23.047Z,2.40
2019-02-04T09:22:49.308Z,2.40
2019-02-04T09:25:21.175Z,2.40
2019-02-04T09:27:47.718Z,2.40
2019-02-04T09:30:21.897Z,2.40
2019-02-04T09:32:49.072Z,2.40
2019-02-04T09:35:17.392Z,2.40
2019-02-04T09:37:43.871Z,2.50
2019-02-04T09:40:16.371Z,2.50
2019-02-04T09:42:43.088Z,2.60
2019-02-04T09:45:14.631Z,2.60
2019-02-04T09:47:40.828Z,2.60
2019-02-04T09:50:21.142Z,2.70
2019-02-04T09:52:39.075Z,2.70
2019-02-04T09:55:12.023Z,2.70
2019-02-04T09:57:38.175Z,2.90
2019-02-04T10:00:08.308Z,3.00
2019-02-04T10:02:34.699Z,3.00
2019-02-04T10:05:00.886Z,3.00
2019-02-04T10:07:27.078Z,3.00
2019-02-04T10:09:53.223Z,3.10
2019-02-04T10:12:19.368Z,3.00
2019-02-04T10:14:45.560Z,3.10
2019-02-04T10:17:12.101Z,3.20
2019-02-04T10:19:38.315Z,3.20
2019-02-04T10:22:04.637Z,3.30
2019-02-04T10:24:30.908Z,3.40
2019-02-04T10:26:57.186Z,3.40
2019-02-04T10:29:23.410Z,3.40
2019-02-04T10:31:49.628Z,3.50
2019-02-04T10:34:15.902Z,3.60
2019-02-04T10:36:42.527Z,3.60
2019-02-04T10:39:08.978Z,3.70
2019-02-04T10:41:35.923Z,3.70
2019-02-04T10:44:02.754Z,3.70
2019-02-04T10:46:29.022Z,3.70
2019-02-04T10:48:55.402Z,3.70
2019-02-04T10:51:21.642Z,3.70
2019-02-04T10:53:48.086Z,3.80
2019-02-04T10:56:16.285Z,3.90
2019-02-04T10:58:42.468Z,3.90
2019-02-04T11:01:08.966Z,4.00
2019-02-04T11:03:35.347Z,4.00
2019-02-04T11:06:01.618Z,4.00
2019-02-04T11:08:27.902Z,4.10
2019-02-04T11:10:54.240Z,4.20
2019-02-04T11:13:20.762Z,4.30
2019-02-04T11:15:47.111Z,4.30
2019-02-04T11:18:14.091Z,4.50
2019-02-04T11:20:41.424Z,4.50
2019-02-04T11:23:07.813Z,4.60
2019-02-04T11:25:34.134Z,4.70
2019-02-04T11:28:00.364Z,4.70
2019-02-04T11:30:31.605Z,4.80
2019-02-04T11:32:57.782Z,4.90
2019-02-04T11:35:24.190Z,5.10
2019-02-04T11:37:50.577Z,5.10
2019-02-04T11:40:20.610Z,5.10
2019-02-04T11:42:46.807Z,5.20
2019-02-04T11:45:13.775Z,5.20
2019-02-04T11:47:40.064Z,5.30
2019-02-04T11:50:12.159Z,5.30
2019-02-04T11:52:38.383Z,5.40
2019-02-04T11:55:08.046Z,5.50
2019-02-04T11:57:34.217Z,5.40
2019-02-04T12:00:00.612Z,5.50
2019-02-04T12:02:34.355Z,5.50
2019-02-04T12:04:54.924Z,5.60
2019-02-04T12:07:21.059Z,5.60
2019-02-04T12:09:47.211Z,5.60
2019-02-04T12:12:13.428Z,5.60
2019-02-04T12:14:39.566Z,5.70
2019-02-04T12:17:05.759Z,5.80
2019-02-04T12:19:31.903Z,5.90
2019-02-04T12:21:59.055Z,5.90
2019-02-04T12:24:25.840Z,5.90
2019-02-04T12:26:51.980Z,6.00
2019-02-04T12:29:18.188Z,6.00
2019-02-04T12:31:44.317Z,6.00
2019-02-04T12:34:10.479Z,6.00
2019-02-04T12:36:37.917Z,6.00
2019-02-04T12:39:07.703Z,6.00
2019-02-04T12:41:35.352Z,6.10
2019-02-04T12:44:01.537Z,6.20
2019-02-04T12:46:27.783Z,6.20
2019-02-04T12:48:54.968Z,6.20
2019-02-04T12:51:32.915Z,6.20
2019-02-04T12:53:49.216Z,6.30
2019-02-04T12:56:15.392Z,6.30
2019-02-04T12:58:41.527Z,6.30
2019-02-04T13:01:07.936Z,6.30
2019-02-04T13:03:35.178Z,6.40
2019-02-04T13:06:01.422Z,6.40
2019-02-04T13:08:27.558Z,6.40
2019-02-04T13:10:53.751Z,6.40
2019-02-04T13:13:20.252Z,6.40
2019-02-04T13:15:46.450Z,6.40
2019-02-04T13:18:12.625Z,6.30
2019-02-04T13:20:39.710Z,6.30
2019-02-04T13:23:06.042Z,6.30
2019-02-04T13:25:32.317Z,6.20
2019-02-04T13:27:58.499Z,6.20
2019-02-04T13:30:26.255Z,6.30
2019-02-04T13:32:52.639Z,6.20
2019-02-04T13:35:19.079Z,6.20
2019-02-04T13:37:45.268Z,6.10
2019-02-04T13:40:26.026Z,6.10
2019-02-04T13:42:52.404Z,6.10
2019-02-04T13:45:19.771Z,6.10
2019-02-04T13:47:47.459Z,6.10
2019-02-04T13:50:15.795Z,6.10
2019-02-04T13:52:42.476Z,6.10
2019-02-04T13:55:12.365Z,6.10
2019-02-04T13:57:38.552Z,6.10
2019-02-04T14:00:08.583Z,6.00
2019-02-04T14:02:34.960Z,6.00
2019-02-04T14:05:01.215Z,5.90
2019-02-04T14:07:27.355Z,5.90
2019-02-04T14:09:53.888Z,5.90
2019-02-04T14:12:20.270Z,5.90
2019-02-04T14:14:46.467Z,5.90
2019-02-04T14:17:12.831Z,5.90
2019-02-04T14:19:39.223Z,5.90
2019-02-04T14:22:09.478Z,5.90
2019-02-04T14:24:33.652Z,5.90
2019-02-04T14:26:59.776Z,5.90
2019-02-04T14:29:25.951Z,5.90
2019-02-04T14:31:52.087Z,5.90
2019-02-04T14:34:18.237Z,5.90
2019-02-04T14:36:44.473Z,5.90
2019-02-04T14:39:13.315Z,5.80
2019-02-04T14:41:39.446Z,5.80
2019-02-04T14:44:06.390Z,5.80
2019-02-04T14:46:42.318Z,5.80
2019-02-04T14:49:32.881Z,5.70
2019-02-04T14:52:23.630Z,5.70
2019-02-04T14:54:59.558Z,5.70
2019-02-04T14:57:35.630Z,5.70
2019-02-04T15:00:05.610Z,5.70
2019-02-04T15:02:39.010Z,5.60
2019-02-04T15:05:21.357Z,5.60
2019-02-04T15:07:51.367Z,5.60
2019-02-04T15:10:22.307Z,5.60
2019-02-04T15:13:10.195Z,5.60
2019-02-04T15:15:42.963Z,5.60
2019-02-04T15:18:29.735Z,5.60
2019-02-04T15:21:05.611Z,5.60
2019-02-04T15:23:38.560Z,5.60
2019-02-04T15:26:17.527Z,5.60
2019-02-04T15:29:10.280Z,5.60
2019-02-04T15:31:40.217Z,5.60
2019-02-04T15:34:18.966Z,5.60
2019-02-04T15:36:54.671Z,5.60
2019-02-04T15:39:27.639Z,5.60
2019-02-04T15:42:00.610Z,5.60
2019-02-04T15:44:36.240Z,5.60
2019-02-04T15:47:21.489Z,5.60
2019-02-04T15:49:57.592Z,5.60
2019-02-04T15:52:23.745Z,5.60
2019-02-04T15:54:49.989Z,5.60
2019-02-04T15:57:16.430Z,5.60
2019-02-04T15:59:42.633Z,5.50
2019-02-04T16:02:08.928Z,5.60
2019-02-04T16:04:35.069Z,5.60
2019-02-04T16:07:03.157Z,5.60
2019-02-04T16:09:29.571Z,5.60
2019-02-04T16:11:55.841Z,5.60
2019-02-04T16:14:21.992Z,5.50
2019-02-04T16:16:48.519Z,5.60
2019-02-04T16:19:14.906Z,5.50
2019-02-04T16:21:41.279Z,5.40
2019-02-04T16:24:07.451Z,5.40
2019-02-04T16:26:33.590Z,5.50
2019-02-04T16:28:59.751Z,5.40
2019-02-04T16:31:25.935Z,5.40
2019-02-04T16:33:53.095Z,5.40
2019-02-04T16:36:19.656Z,5.30
2019-02-04T16:38:45.795Z,5.30
2019-02-04T16:41:11.955Z,5.20
2019-02-04T16:43:38.153Z,5.20
2019-02-04T16:46:04.392Z,5.20
2019-02-04T16:48:30.774Z,5.20
2019-02-04T16:51:10.540Z,5.10
2019-02-04T16:53:24.999Z,5.10
2019-02-04T16:55:51.547Z,5.10
2019-02-04T16:58:17.701Z,5.10
2019-02-04T17:00:43.871Z,5.00
2019-02-04T17:03:10.015Z,5.00
2019-02-04T17:05:36.269Z,5.00
2019-02-04T17:08:03.813Z,5.00
2019-02-04T17:10:29.961Z,5.00
2019-02-04T17:12:56.101Z,5.00
2019-02-04T17:15:25.526Z,5.00
2019-02-04T17:17:50.811Z,5.00
2019-02-04T17:20:25.379Z,5.00
2019-02-04T17:22:51.790Z,5.00
2019-02-04T17:25:18.037Z,5.10
2019-02-04T17:27:44.618Z,5.00
2019-02-04T17:30:23.752Z,5.00
2019-02-04T17:32:50.206Z,5.00
2019-02-04T17:35:16.586Z,5.10
2019-02-04T17:37:42.868Z,5.10
2019-02-04T17:40:12.881Z,5.10
2019-02-04T17:42:39.037Z,5.10
2019-02-04T17:45:08.623Z,5.20
2019-02-04T17:47:34.844Z,5.20
2019-02-04T17:50:01.054Z,5.20
2019-02-04T17:52:27.514Z,5.30
2019-02-04T17:54:53.695Z,5.30
2019-02-04T17:57:19.965Z,5.30
2019-02-04T17:59:46.147Z,5.30
2019-02-04T18:02:12.388Z,5.30
2019-02-04T18:04:38.635Z,5.30
2019-02-04T18:07:05.079Z,5.30
2019-02-04T18:09:31.493Z,5.30
2019-02-04T18:11:57.646Z,5.30
2019-02-04T18:14:23.807Z,5.30
2019-02-04T18:16:49.956Z,5.30
2019-02-04T18:19:16.118Z,5.30
2019-02-04T18:21:42.252Z,5.30
2019-02-04T18:24:08.670Z,5.30
2019-02-04T18:26:34.808Z,5.30
2019-02-04T18:29:00.963Z,5.20
2019-02-04T18:31:27.135Z,5.20
2019-02-04T18:33:53.685Z,5.30
2019-02-04T18:36:20.060Z,5.20
2019-02-04T18:38:46.237Z,5.30
2019-02-04T18:41:12.372Z,5.20
2019-02-04T18:43:38.647Z,5.30
2019-02-04T18:46:04.882Z,5.20
2019-02-04T18:48:31.459Z,5.30
2019-02-04T18:50:57.598Z,5.20
2019-02-04T18:53:23.868Z,5.20
2019-02-04T18:55:50.038Z,5.20
2019-02-04T18:58:16.204Z,5.20
2019-02-04T19:00:42.763Z,5.20
2019-02-04T19:03:16.964Z,5.20
2019-02-04T19:05:37.310Z,5.20
2019-02-04T19:08:03.870Z,5.20
2019-02-04T19:10:30.041Z,5.10
2019-02-04T19:12:56.358Z,5.10
2019-02-04T19:15:24.439Z,5.10
2019-02-04T19:17:52.684Z,5.00
2019-02-04T19:20:20.644Z,5.00
2019-02-04T19:22:47.009Z,5.00
2019-02-04T19:25:15.482Z,5.00
2019-02-04T19:27:42.331Z,5.00
2019-02-04T19:30:12.291Z,5.00
2019-02-04T19:32:38.554Z,4.90
2019-02-04T19:35:08.392Z,4.90
2019-02-04T19:37:34.554Z,4.90
2019-02-04T19:40:00.703Z,4.90
2019-02-04T19:42:26.867Z,4.90
2019-02-04T19:44:53.264Z,4.90
2019-02-04T19:47:19.415Z,4.90
2019-02-04T19:49:45.576Z,4.90
2019-02-04T19:52:11.931Z,4.90
2019-02-04T19:54:38.116Z,4.90
2019-02-04T19:57:04.299Z,4.90
2019-02-04T19:59:30.549Z,4.90
2019-02-04T20:01:56.700Z,4.90
2019-02-04T20:04:22.859Z,4.90
2019-02-04T20:06:49.039Z,4.90
2019-02-04T20:09:15.187Z,4.90
2019-02-04T20:11:41.366Z,4.90
2019-02-04T20:14:07.729Z,4.90
2019-02-04T20:16:34.016Z,4.80
2019-02-04T20:19:00.192Z,4.80
2019-02-04T20:21:26.379Z,4.80
2019-02-04T20:23:52.551Z,4.80
2019-02-04T20:26:19.721Z,4.90
2019-02-04T20:28:45.885Z,4.90
2019-02-04T20:31:12.035Z,4.90
2019-02-04T20:33:38.206Z,4.90
2019-02-04T20:36:05.764Z,4.90
2019-02-04T20:38:33.043Z,4.90
2019-02-04T20:41:00.334Z,4.90
2019-02-04T20:43:26.596Z,4.90
2019-02-04T20:45:52.755Z,4.90
2019-02-04T20:48:18.899Z,4.90
2019-02-04T20:50:47.758Z,4.90
2019-02-04T20:53:14.537Z,4.90
2019-02-04T20:55:41.039Z,4.90
2019-02-04T20:58:07.501Z,4.90
2019-02-04T21:00:34.000Z,4.90
2019-02-04T21:03:02.075Z,4.90
2019-02-04T21:05:28.309Z,4.90
2019-02-04T21:07:54.582Z,4.90
2019-02-04T21:10:26.475Z,4.90
2019-02-04T21:12:53.204Z,4.90
2019-02-04T21:15:20.952Z,4.80
2019-02-04T21:17:47.104Z,4.80
2019-02-04T21:20:16.274Z,4.80
2019-02-04T21:22:42.434Z,4.80
2019-02-04T21:25:09.576Z,4.70
2019-02-04T21:27:35.851Z,4.60
2019-02-04T21:30:14.756Z,4.70
2019-02-04T21:32:41.277Z,4.70
2019-02-04T21:35:07.517Z,4.50
2019-02-04T21:37:33.776Z,4.50
2019-02-04T21:39:59.945Z,4.40
2019-02-04T21:42:26.439Z,4.40
2019-02-04T21:44:52.608Z,4.40
2019-02-04T21:47:19.528Z,4.30
2019-02-04T21:49:45.872Z,4.30
2019-02-04T21:52:12.251Z,4.30
2019-02-04T21:54:38.443Z,4.30
2019-02-04T21:57:04.847Z,4.30
2019-02-04T21:59:31.161Z,4.30
2019-02-04T22:01:57.536Z,4.30
2019-02-04T22:04:23.934Z,4.20
2019-02-04T22:06:50.382Z,4.20
2019-02-04T22:09:16.959Z,4.10
2019-02-04T22:11:43.213Z,4.10
2019-02-04T22:14:09.876Z,4.10
2019-02-04T22:16:36.036Z,4.10
2019-02-04T22:19:02.543Z,4.10
2019-02-04T22:21:28.737Z,4.10
2019-02-04T22:23:55.213Z,4.10
2019-02-04T22:26:21.463Z,4.10
2019-02-04T22:28:47.660Z,4.10
2019-02-04T22:31:13.848Z,4.00
2019-02-04T22:33:40.006Z,4.00
2019-02-04T22:36:06.200Z,3.90
2019-02-04T22:38:32.345Z,3.90
2019-02-04T22:40:58.511Z,3.90
2019-02-04T22:43:24.643Z,3.90
2019-02-04T22:45:50.840Z,3.90
2019-02-04T22:48:17.012Z,3.80
2019-02-04T22:50:43.179Z,3.80
2019-02-04T22:53:09.323Z,3.70
2019-02-04T22:55:35.471Z,3.70
2019-02-04T22:58:01.684Z,3.70
2019-02-04T23:00:44.663Z,3.60
2019-02-04T23:03:12.039Z,3.70
2019-02-04T23:05:38.168Z,3.60
2019-02-04T23:08:04.834Z,3.70
2019-02-04T23:10:30.981Z,3.60
2019-02-04T23:12:57.127Z,3.60
2019-02-04T23:15:23.518Z,3.60
2019-02-04T23:17:49.891Z,3.60
2019-02-04T23:20:16.027Z,3.60
2019-02-04T23:22:44.164Z,3.70
2019-02-04T23:25:10.515Z,3.60
2019-02-04T23:27:36.667Z,3.50
2019-02-04T23:30:13.046Z,3.60
2019-02-04T23:32:39.291Z,3.60
2019-02-04T23:35:06.665Z,3.60
2019-02-04T23:37:32.803Z,3.60
2019-02-04T23:39:58.956Z,3.50
2019-02-04T23:42:25.091Z,3.60
2019-02-04T23:44:51.251Z,3.60
2019-02-04T23:47:17.403Z,3.60
2019-02-04T23:49:44.555Z,3.60
2019-02-04T23:52:10.690Z,3.60
2019-02-04T23:54:36.848Z,3.50
2019-02-04T23:57:03.088Z,3.60
2019-02-04T23:59:29.273Z,3.60
